createdAt,value
2023-11-04T15:03:24.525Z,94709.88
2023-11-04T15:05:51.267Z,94679.41
2023-11-04T15:08:19.120Z,94697.72
2023-11-04T15:10:46.004Z,94685.59
2023-11-04T15:13:13.531Z,94690.81
2023-11-04T15:15:40.328Z,94703.13
2023-11-04T15:18:07.171Z,94703.13
2023-11-04T15:20:33.897Z,94699.72
2023-11-04T15:23:00.668Z,94696.19
2023-11-04T15:25:27.346Z,94677.91
2023-11-04T15:27:54.227Z,94680.53
2023-11-04T15:30:20.896Z,94694.44
2023-11-04T15:32:47.578Z,94687.59
2023-11-04T15:35:14.438Z,94676.25
2023-11-04T15:37:41.196Z,94697.16
2023-11-04T15:40:09.022Z,94705.03
2023-11-04T15:42:35.836Z,94716.47
2023-11-04T15:45:03.790Z,94709.50
2023-11-04T15:47:30.573Z,94712.06
2023-11-04T15:49:57.279Z,94727.69
2023-11-04T15:52:24.785Z,94730.38
2023-11-04T15:54:52.957Z,94731.38
2023-11-04T15:57:21.717Z,94728.63
2023-11-04T15:59:48.595Z,94735.75
2023-11-04T16:02:15.429Z,94739.22
2023-11-04T16:04:42.799Z,94741.03
2023-11-04T16:07:09.763Z,94746.22
2023-11-04T16:09:37.991Z,94743.72
2023-11-04T16:12:05.169Z,94752.28
2023-11-04T16:14:31.817Z,94778.53
2023-11-04T16:16:58.474Z,94765.53
2023-11-04T16:19:25.373Z,94760.38
2023-11-04T16:21:52.176Z,94748.97
2023-11-04T16:24:19.345Z,94749.78
2023-11-04T16:26:46.074Z,94736.75
2023-11-04T16:29:12.730Z,94762.03
2023-11-04T16:31:39.436Z,94754.19
2023-11-04T16:34:07.413Z,94759.44
2023-11-04T16:36:34.132Z,94774.31
2023-11-04T16:39:00.881Z,94790.97
2023-11-04T16:41:27.626Z,94792.78
2023-11-04T16:43:54.342Z,94814.47
2023-11-04T16:46:21.115Z,94801.47
2023-11-04T16:48:48.272Z,94818.06
2023-11-04T16:51:14.940Z,94813.72
2023-11-04T16:53:41.539Z,94805.84
2023-11-04T16:56:08.617Z,94789.34
2023-11-04T16:58:35.825Z,94798.00
2023-11-04T17:01:02.463Z,94780.56
2023-11-04T17:03:29.327Z,94776.25
2023-11-04T17:05:56.006Z,94788.28
2023-11-04T17:08:22.682Z,94766.63
2023-11-04T17:10:49.320Z,94770.94
2023-11-04T17:13:16.047Z,94760.47
2023-11-04T17:15:43.001Z,94753.50
2023-11-04T17:18:09.874Z,94752.59
2023-11-04T17:20:36.607Z,94737.84
2023-11-04T17:23:03.338Z,94748.25
2023-11-04T17:25:30.096Z,94741.34
2023-11-04T17:27:56.775Z,94736.88
2023-11-04T17:30:23.432Z,94712.47
2023-11-04T17:32:50.220Z,94692.41
2023-11-04T17:35:16.884Z,94694.94
2023-11-04T17:37:48.559Z,94675.84
2023-11-04T17:40:15.719Z,94693.25
2023-11-04T17:42:43.348Z,94696.75
2023-11-04T17:45:11.178Z,94694.25
2023-11-04T17:47:38.327Z,94702.09
2023-11-04T17:50:05.489Z,94712.63
2023-11-04T17:52:32.146Z,94679.50
2023-11-04T17:54:58.813Z,94656.75
2023-11-04T17:57:26.688Z,94645.47
2023-11-04T17:59:53.609Z,94641.22
2023-11-04T18:02:20.241Z,94639.41
2023-11-04T18:04:47.109Z,94648.09
2023-11-04T18:07:14.303Z,94646.31
2023-11-04T18:09:40.943Z,94633.25
2023-11-04T18:12:08.024Z,94620.19
2023-11-04T18:14:34.662Z,94595.81
2023-11-04T18:17:03.640Z,94595.69
2023-11-04T18:19:31.732Z,94587.94
2023-11-04T18:21:58.423Z,94591.41
2023-11-04T18:24:25.138Z,94586.22
2023-11-04T18:26:51.736Z,94597.50
2023-11-04T18:29:18.460Z,94603.59
2023-11-04T18:31:46.340Z,94621.16
2023-11-04T18:34:13.968Z,94628.91
2023-11-04T18:36:40.669Z,94607.19
2023-11-04T18:39:09.390Z,94587.09
2023-11-04T18:41:36.106Z,94580.97
2023-11-04T18:44:03.177Z,94578.38
2023-11-04T18:46:29.957Z,94585.25
2023-11-04T18:48:56.690Z,94593.13
2023-11-04T18:51:23.555Z,94573.97
2023-11-04T18:53:50.495Z,94585.25
2023-11-04T18:56:18.753Z,94584.28
2023-11-04T18:58:45.600Z,94566.97
2023-11-04T19:01:12.446Z,94557.28
2023-11-04T19:03:39.143Z,94565.19
2023-11-04T19:06:06.850Z,94553.09
2023-11-04T19:08:35.170Z,94563.44
2023-11-04T19:11:02.613Z,94569.59
2023-11-04T19:13:30.044Z,94586.16
2023-11-04T19:15:56.819Z,94575.81
2023-11-04T19:18:23.619Z,94587.94
2023-11-04T19:20:50.420Z,94593.22
2023-11-04T19:23:17.142Z,94593.22
2023-11-04T19:25:44.024Z,94603.72
2023-11-04T19:28:10.869Z,94583.72
2023-11-04T19:30:37.645Z,94586.34
2023-11-04T19:33:04.649Z,94597.66
2023-11-04T19:35:31.368Z,94600.22
2023-11-04T19:37:58.113Z,94581.03
2023-11-04T19:40:26.128Z,94573.28
2023-11-04T19:42:52.894Z,94560.22
2023-11-04T19:45:23.308Z,94580.09
2023-11-04T19:47:50.658Z,94600.28
2023-11-04T19:50:17.707Z,94592.41
2023-11-04T19:52:47.678Z,94590.78
2023-11-04T19:55:19.047Z,94574.22
2023-11-04T19:57:45.870Z,94585.47
2023-11-04T20:00:13.032Z,94584.69
2023-11-04T20:02:39.785Z,94581.25
2023-11-04T20:05:09.455Z,94576.00
2023-11-04T20:07:36.289Z,94592.63
2023-11-04T20:10:03.645Z,94591.84
2023-11-04T20:12:30.499Z,94585.69
2023-11-04T20:14:57.280Z,94595.19
2023-11-04T20:17:24.040Z,94586.53
2023-11-04T20:19:50.813Z,94577.81
2023-11-04T20:22:18.136Z,94571.75
2023-11-04T20:24:49.623Z,94575.22
2023-11-04T20:27:18.382Z,94592.66
2023-11-04T20:29:45.735Z,94584.84
2023-11-04T20:32:13.045Z,94575.31
2023-11-04T20:34:39.822Z,94588.38
2023-11-04T20:37:06.710Z,94572.69
2023-11-04T20:39:33.732Z,94566.56
2023-11-04T20:42:02.120Z,94582.22
2023-11-04T20:44:29.169Z,94598.78
2023-11-04T20:46:56.952Z,94573.53
2023-11-04T20:49:24.976Z,94582.22
2023-11-04T20:51:51.975Z,94587.44
2023-11-04T20:54:18.619Z,94585.63
2023-11-04T20:56:45.292Z,94579.53
2023-11-04T20:59:12.045Z,94542.91
2023-11-04T21:01:38.841Z,94549.88
2023-11-04T21:04:05.962Z,94572.66
2023-11-04T21:06:32.739Z,94570.88
2023-11-04T21:08:59.353Z,94571.75
2023-11-04T21:11:26.032Z,94551.75
2023-11-04T21:13:52.778Z,94570.91
2023-11-04T21:16:19.541Z,94577.06
2023-11-04T21:18:46.291Z,94566.63
2023-11-04T21:21:13.828Z,94581.41
2023-11-04T21:23:40.474Z,94571.88
2023-11-04T21:26:07.449Z,94587.47
2023-11-04T21:28:34.509Z,94603.94
2023-11-04T21:31:01.890Z,94602.34
2023-11-04T21:33:32.410Z,94612.81
2023-11-04T21:35:59.475Z,94618.03
2023-11-04T21:38:26.147Z,94602.34
2023-11-04T21:40:53.143Z,94595.38
2023-11-04T21:43:19.862Z,94575.31
2023-11-04T21:45:46.524Z,94594.47
2023-11-04T21:48:13.239Z,94582.25
2023-11-04T21:50:39.883Z,94577.91
2023-11-04T21:53:06.534Z,94552.63
2023-11-04T21:55:33.456Z,94561.34
2023-11-04T21:58:00.235Z,94552.66
2023-11-04T22:00:26.978Z,94576.97
2023-11-04T22:02:55.241Z,94561.22
2023-11-04T22:05:22.421Z,94529.06
2023-11-04T22:07:49.842Z,94556.09
2023-11-04T22:10:16.550Z,94543.91
2023-11-04T22:12:43.233Z,94541.16
2023-11-04T22:15:11.828Z,94537.63
2023-11-04T22:17:38.763Z,94548.09
2023-11-04T22:20:06.410Z,94563.91
2023-11-04T22:22:33.240Z,94574.19
2023-11-04T22:25:00.005Z,94564.72
2023-11-04T22:27:26.633Z,94557.75
2023-11-04T22:29:53.431Z,94567.31
2023-11-04T22:32:20.122Z,94559.44
2023-11-04T22:34:46.837Z,94544.63
2023-11-04T22:37:13.836Z,94551.59
2023-11-04T22:39:40.508Z,94544.59
2023-11-04T22:42:07.515Z,94542.88
2023-11-04T22:44:34.207Z,94555.06
2023-11-04T22:47:01.049Z,94569.84
2023-11-04T22:49:27.748Z,94573.31
2023-11-04T22:51:54.536Z,94578.59
2023-11-04T22:54:21.228Z,94554.28
2023-11-04T22:56:48.062Z,94569.94
2023-11-04T22:59:14.717Z,94571.75
2023-11-04T23:01:41.427Z,94606.59
2023-11-04T23:04:08.483Z,94584.78
2023-11-04T23:06:35.316Z,94607.50
2023-11-04T23:09:02.170Z,94598.03
2023-11-04T23:11:31.518Z,94597.22
2023-11-04T23:13:59.313Z,94615.47
2023-11-04T23:16:26.048Z,94613.75
2023-11-04T23:18:53.046Z,94632.09
2023-11-04T23:21:20.910Z,94626.88
2023-11-04T23:23:47.562Z,94620.78
2023-11-04T23:26:15.182Z,94597.22
2023-11-04T23:28:41.955Z,94609.47
2023-11-04T23:31:08.675Z,94612.09
2023-11-04T23:33:35.367Z,94607.72
2023-11-04T23:36:02.101Z,94597.28
